Alderson, West Virginia
Current Conditions -  °F | °C
As of 8:35 AM on Wednesday 22 Oct 2014 (Local Time) from KLWB Reporting Station
Overcast Overcast  
Wind Chill: 43°   Ceiling: 2700
Heat Index: 46°   Visibility: 10mi
Dew Point: 38°   Wind: 5mph
Humidity: 76%   Direction: 310°NW
Pressure: 30.08"   Gusts: NA
Location:  37.73°N, 80.64°W
Report Text: KLWB 221235Z AUTO 31004KT 10SM SCT021 OVC027 08/04 A3008 RMK AO2 T00750035
Loading
Personal Weather Stations






























Interactive Weather Map
Tropical Storm Tracking
New forecast layout! Learn more

10-Day Weather Forecast

Advertisements
Track Severe Weather on mobile